Time,TemperatureF,DewpointF,PressureIn,WindDirection,WindDirectionDegrees,WindSpeedMPH,WindSpeedGustMPH,Humidity,HourlyPrecipIn,Conditions,Clouds,dailyrainin,SoftwareType,DateUTC
2013-01-21 00:04:00,27.0,12.0,29.85,WNW,283,9.0,22.0,52,0.00,,,0.00,,2013-01-21 05:04:00,
2013-01-21 00:12:00,27.0,12.0,29.85,WNW,283,9.0,22.0,52,0.00,,,0.00,,2013-01-21 05:12:00,
2013-01-21 00:22:00,27.0,10.0,29.85,WNW,295,17.0,24.0,48,0.00,,,0.00,,2013-01-21 05:22:00,
2013-01-21 00:34:00,27.0,10.0,29.86,NW,310,6.0,19.0,49,0.00,,,0.00,,2013-01-21 05:34:00,
2013-01-21 00:42:00,27.0,10.0,29.86,NW,310,6.0,19.0,49,0.00,,,0.00,,2013-01-21 05:42:00,
2013-01-21 00:52:00,27.0,10.0,29.86,WNW,288,10.0,18.0,48,0.00,,,0.00,,2013-01-21 05:52:00,
2013-01-21 01:03:00,27.0,10.0,29.87,WNW,301,12.0,19.0,48,0.00,,,0.00,,2013-01-21 06:03:00,
2013-01-21 01:13:00,27.0,10.0,29.87,WNW,301,12.0,19.0,48,0.00,,,0.00,,2013-01-21 06:13:00,
2013-01-21 01:23:00,27.0,10.0,29.87,NW,314,9.0,18.0,49,0.00,,,0.00,,2013-01-21 06:23:00,
2013-01-21 01:33:00,26.0,9.0,29.88,WNW,299,9.0,20.0,48,0.00,,,0.00,,2013-01-21 06:33:00,
2013-01-21 01:43:00,26.0,9.0,29.88,WNW,299,9.0,20.0,48,0.00,,,0.00,,2013-01-21 06:43:00,
2013-01-21 01:52:00,26.0,6.0,29.88,NW,308,14.0,28.0,42,0.00,,,0.00,,2013-01-21 06:52:00,
2013-01-21 02:03:00,25.0,6.0,29.90,WNW,296,9.0,26.0,44,0.00,,,0.00,,2013-01-21 07:03:00,
2013-01-21 02:13:00,25.0,6.0,29.90,WNW,296,9.0,26.0,44,0.00,,,0.00,,2013-01-21 07:13:00,
2013-01-21 02:23:00,25.0,6.0,29.90,WNW,296,16.0,25.0,43,0.00,,,0.00,,2013-01-21 07:23:00,
2013-01-21 02:33:00,24.0,5.0,29.92,WNW,290,7.0,17.0,44,0.00,,,0.00,,2013-01-21 07:33:00,
2013-01-21 02:42:00,24.0,5.0,29.92,WNW,290,7.0,17.0,44,0.00,,,0.00,,2013-01-21 07:42:00,
2013-01-21 02:52:00,24.0,6.0,29.92,WNW,300,7.0,16.0,45,0.00,,,0.00,,2013-01-21 07:52:00,
2013-01-21 03:03:00,23.0,5.0,29.93,NW,314,8.0,16.0,46,0.00,,,0.00,,2013-01-21 08:03:00,
2013-01-21 03:14:00,23.0,5.0,29.93,NW,314,8.0,16.0,46,0.00,,,0.00,,2013-01-21 08:14:00,
2013-01-21 03:23:00,23.0,5.0,29.93,WNW,298,8.0,16.0,46,0.00,,,0.00,,2013-01-21 08:23:00,
2013-01-21 03:33:00,23.0,3.0,29.94,WNW,285,11.0,19.0,41,0.00,,,0.00,,2013-01-21 08:33:00,
2013-01-21 03:42:00,23.0,3.0,29.94,WNW,285,11.0,19.0,41,0.00,,,0.00,,2013-01-21 08:42:00,
2013-01-21 03:53:00,23.0,3.0,29.94,NW,305,8.0,18.0,42,0.00,,,0.00,,2013-01-21 08:53:00,
2013-01-21 04:03:00,22.0,2.0,29.95,NW,320,4.0,17.0,41,0.00,,,0.00,,2013-01-21 09:03:00,
2013-01-21 04:12:00,22.0,2.0,29.95,NW,320,4.0,17.0,41,0.00,,,0.00,,2013-01-21 09:12:00,
2013-01-21 04:23:00,22.0,2.0,29.95,NW,305,7.0,11.0,41,0.00,,,0.00,,2013-01-21 09:23:00,
2013-01-21 04:33:00,22.0,2.0,29.96,WNW,295,5.0,13.0,42,0.00,,,0.00,,2013-01-21 09:33:00,
2013-01-21 04:42:00,22.0,2.0,29.96,WNW,295,5.0,13.0,42,0.00,,,0.00,,2013-01-21 09:42:00,
2013-01-21 04:53:00,22.0,2.0,29.96,WNW,293,9.0,18.0,42,0.00,,,0.00,,2013-01-21 09:53:00,
2013-01-21 05:02:00,21.0,2.0,29.96,NW,309,4.0,12.0,42,0.00,,,0.00,,2013-01-21 10:02:00,
2013-01-21 05:12:00,21.0,2.0,29.96,NW,309,4.0,12.0,42,0.00,,,0.00,,2013-01-21 10:12:00,
2013-01-21 05:22:00,21.0,2.0,29.96,WNW,301,6.0,11.0,42,0.00,,,0.00,,2013-01-21 10:22:00,
2013-01-21 05:33:00,21.0,1.0,29.97,WNW,299,7.0,11.0,41,0.00,,,0.00,,2013-01-21 10:33:00,
2013-01-21 05:43:00,21.0,1.0,29.97,WNW,299,7.0,11.0,41,0.00,,,0.00,,2013-01-21 10:43:00,
2013-01-21 05:52:00,21.0,2.0,29.97,NW,321,6.0,12.0,42,0.00,,,0.00,,2013-01-21 10:52:00,
2013-01-21 06:03:00,20.0,1.0,29.98,NW,310,2.0,6.0,43,0.00,,,0.00,,2013-01-21 11:03:00,
2013-01-21 06:13:00,20.0,1.0,29.98,NW,310,2.0,6.0,43,0.00,,,0.00,,2013-01-21 11:13:00,
2013-01-21 06:23:00,20.0,1.0,29.98,West,278,4.0,8.0,43,0.00,,,0.00,,2013-01-21 11:23:00,
2013-01-21 06:33:00,20.0,2.0,29.98,West,270,3.0,7.0,45,0.00,,,0.00,,2013-01-21 11:33:00,
2013-01-21 06:43:00,20.0,2.0,29.98,West,270,3.0,7.0,45,0.00,,,0.00,,2013-01-21 11:43:00,
2013-01-21 06:53:00,20.0,3.0,29.98,West,274,0.0,7.0,46,0.00,,,0.00,,2013-01-21 11:53:00,
2013-01-21 07:03:00,19.0,3.0,29.99,West,278,0.0,0.0,50,0.00,,,0.00,,2013-01-21 12:03:00,
2013-01-21 07:12:00,19.0,3.0,29.99,West,278,0.0,0.0,50,0.00,,,0.00,,2013-01-21 12:12:00,
2013-01-21 07:22:00,19.0,3.0,29.99,WNW,292,0.0,0.0,50,0.00,,,0.00,,2013-01-21 12:22:00,
2013-01-21 07:33:00,19.0,4.0,30.00,West,260,0.0,0.0,51,0.00,,,0.00,,2013-01-21 12:33:00,
2013-01-21 07:42:00,19.0,4.0,30.00,West,260,0.0,0.0,51,0.00,,,0.00,,2013-01-21 12:42:00,
2013-01-21 07:52:00,19.0,4.0,30.00,WNW,284,0.0,0.0,51,0.00,,,0.00,,2013-01-21 12:52:00,
2013-01-21 08:03:00,19.0,4.0,30.01,West,281,0.0,0.0,52,0.00,,,0.00,,2013-01-21 13:03:00,
2013-01-21 08:13:00,19.0,4.0,30.01,West,281,0.0,0.0,52,0.00,,,0.00,,2013-01-21 13:13:00,
2013-01-21 08:23:00,19.0,4.0,30.01,West,261,0.0,0.0,52,0.00,,,0.00,,2013-01-21 13:23:00,
2013-01-21 08:33:00,20.0,5.0,30.01,West,278,0.0,2.0,52,0.00,,,0.00,,2013-01-21 13:33:00,
2013-01-21 08:43:00,20.0,5.0,30.01,West,278,0.0,2.0,52,0.00,,,0.00,,2013-01-21 13:43:00,
2013-01-21 08:53:00,20.0,5.0,30.01,West,273,1.0,5.0,52,0.00,,,0.00,,2013-01-21 13:53:00,
2013-01-21 09:03:00,21.0,5.0,30.01,West,260,0.0,7.0,50,0.00,,,0.00,,2013-01-21 14:03:00,
2013-01-21 09:12:00,21.0,5.0,30.01,West,260,0.0,7.0,50,0.00,,,0.00,,2013-01-21 14:12:00,
2013-01-21 09:23:00,21.0,5.0,30.01,WNW,286,0.0,10.0,50,0.00,,,0.00,,2013-01-21 14:23:00,
2013-01-21 09:33:00,22.0,5.0,30.02,WNW,287,6.0,11.0,47,0.00,,,0.00,,2013-01-21 14:33:00,
2013-01-21 09:43:00,22.0,5.0,30.02,WNW,287,6.0,11.0,47,0.00,,,0.00,,2013-01-21 14:43:00,
2013-01-21 09:53:00,22.0,5.0,30.02,WNW,294,4.0,11.0,47,0.00,,,0.00,,2013-01-21 14:53:00,
2013-01-21 10:03:00,23.0,5.0,30.03,SW,223,0.0,7.0,45,0.00,,,0.00,,2013-01-21 15:03:00,
2013-01-21 10:13:00,23.0,5.0,30.03,SW,223,0.0,7.0,45,0.00,,,0.00,,2013-01-21 15:13:00,
2013-01-21 10:23:00,24.0,6.0,30.03,West,267,0.0,5.0,45,0.00,,,0.00,,2013-01-21 15:23:00,
2013-01-21 10:33:00,25.0,5.0,30.03,WSW,254,1.0,12.0,41,0.00,,,0.00,,2013-01-21 15:33:00,
2013-01-21 10:43:00,25.0,5.0,30.03,WSW,254,1.0,12.0,41,0.00,,,0.00,,2013-01-21 15:43:00,
2013-01-21 10:53:00,25.0,5.0,30.03,WNW,288,3.0,10.0,42,0.00,,,0.00,,2013-01-21 15:53:00,
2013-01-21 11:04:00,25.0,5.0,30.02,WNW,290,1.0,6.0,41,0.00,,,0.00,,2013-01-21 16:04:00,
2013-01-21 11:12:00,25.0,5.0,30.02,WNW,290,1.0,6.0,41,0.00,,,0.00,,2013-01-21 16:12:00,
2013-01-21 11:23:00,26.0,6.0,30.02,SW,228,0.0,6.0,42,0.00,,,0.00,,2013-01-21 16:23:00,
2013-01-21 11:33:00,25.0,5.0,29.99,West,272,0.0,7.0,42,0.00,,,0.00,,2013-01-21 16:33:00,
2013-01-21 11:43:00,25.0,5.0,29.99,West,272,0.0,7.0,42,0.00,,,0.00,,2013-01-21 16:43:00,
2013-01-21 11:53:00,25.0,5.0,29.99,WNW,299,1.0,6.0,42,0.00,,,0.00,,2013-01-21 16:53:00,
2013-01-21 12:03:00,27.0,5.0,29.98,WNW,296,5.0,12.0,39,0.00,,,0.00,,2013-01-21 17:03:00,
2013-01-21 12:12:00,27.0,5.0,29.98,WNW,296,5.0,12.0,39,0.00,,,0.00,,2013-01-21 17:12:00,
2013-01-21 12:23:00,26.0,5.0,29.98,WNW,293,2.0,12.0,40,0.00,,,0.00,,2013-01-21 17:23:00,
2013-01-21 12:33:00,26.0,5.0,29.95,WSW,249,1.0,5.0,40,0.00,,,0.00,,2013-01-21 17:33:00,
2013-01-21 12:43:00,26.0,5.0,29.95,WSW,249,1.0,5.0,40,0.00,,,0.00,,2013-01-21 17:43:00,
2013-01-21 12:53:00,26.0,5.0,29.95,SW,234,2.0,8.0,40,0.00,,,0.00,,2013-01-21 17:53:00,
2013-01-21 13:03:00,26.0,6.0,29.95,West,259,0.0,6.0,42,0.00,,,0.00,,2013-01-21 18:03:00,
2013-01-21 13:12:00,26.0,6.0,29.95,West,259,0.0,6.0,42,0.00,,,0.00,,2013-01-21 18:12:00,
2013-01-21 13:23:00,26.0,6.0,29.94,SW,227,1.0,9.0,42,0.00,,,0.00,,2013-01-21 18:23:00,
2013-01-21 13:33:00,26.0,6.0,29.93,SW,217,2.0,8.0,42,0.00,,,0.00,,2013-01-21 18:33:00,
2013-01-21 13:43:00,26.0,6.0,29.93,SW,217,2.0,8.0,42,0.00,,,0.00,,2013-01-21 18:43:00,
2013-01-21 13:52:00,26.0,6.0,29.93,WNW,293,4.0,12.0,42,0.00,,,0.00,,2013-01-21 18:52:00,
2013-01-21 14:03:00,26.0,6.0,29.93,West,266,0.0,10.0,41,0.00,,,0.00,,2013-01-21 19:03:00,
2013-01-21 14:12:00,26.0,7.0,29.93,SW,215,0.0,8.0,43,0.00,,,0.00,,2013-01-21 19:12:00,
2013-01-21 14:22:00,26.0,7.0,29.93,SW,215,0.0,8.0,43,0.00,,,0.00,,2013-01-21 19:22:00,
2013-01-21 14:33:00,26.0,7.0,29.92,WSW,247,0.0,3.0,43,0.00,,,0.00,,2013-01-21 19:33:00,
2013-01-21 14:43:00,26.0,7.0,29.92,WSW,247,0.0,3.0,43,0.00,,,0.00,,2013-01-21 19:43:00,
2013-01-21 14:53:00,26.0,7.0,29.92,SW,231,0.0,6.0,43,0.00,,,0.00,,2013-01-21 19:53:00,
2013-01-21 15:04:00,27.0,8.0,29.92,SW,225,2.0,6.0,43,0.00,,,0.00,,2013-01-21 20:04:00,
2013-01-21 15:12:00,27.0,8.0,29.92,SW,225,2.0,6.0,43,0.00,,,0.00,,2013-01-21 20:12:00,
2013-01-21 15:23:00,26.0,6.0,29.92,WSW,240,1.0,7.0,42,0.00,,,0.00,,2013-01-21 20:23:00,
2013-01-21 15:33:00,26.0,7.0,29.91,WSW,241,1.0,5.0,44,0.00,,,0.00,,2013-01-21 20:33:00,
2013-01-21 15:43:00,26.0,7.0,29.91,WSW,241,1.0,5.0,44,0.00,,,0.00,,2013-01-21 20:43:00,
2013-01-21 15:53:00,26.0,7.0,29.91,WSW,237,2.0,6.0,43,0.00,,,0.00,,2013-01-21 20:53:00,
2013-01-21 16:04:00,26.0,8.0,29.90,SW,221,1.0,3.0,45,0.00,,,0.00,,2013-01-21 21:04:00,
2013-01-21 16:12:00,26.0,8.0,29.90,SW,221,1.0,3.0,45,0.00,,,0.00,,2013-01-21 21:12:00,
2013-01-21 16:23:00,26.0,8.0,29.90,SW,218,0.0,3.0,45,0.00,,,0.00,,2013-01-21 21:23:00,
2013-01-21 16:33:00,26.0,7.0,29.89,WSW,248,0.0,3.0,44,0.00,,,0.00,,2013-01-21 21:33:00,
2013-01-21 16:43:00,26.0,7.0,29.89,WSW,248,0.0,3.0,44,0.00,,,0.00,,2013-01-21 21:43:00,
2013-01-21 16:53:00,26.0,8.0,29.89,West,271,0.0,0.0,46,0.00,,,0.00,,2013-01-21 21:53:00,
2013-01-21 17:03:00,26.0,9.0,29.89,SW,230,4.0,6.0,48,0.00,,,0.00,,2013-01-21 22:03:00,
2013-01-21 17:13:00,26.0,9.0,29.89,SW,230,4.0,6.0,48,0.00,,,0.00,,2013-01-21 22:13:00,
2013-01-21 17:23:00,26.0,10.0,29.89,WSW,237,2.0,7.0,50,0.00,,,0.00,,2013-01-21 22:23:00,
2013-01-21 17:33:00,25.0,11.0,29.88,SSW,196,0.0,0.0,55,0.00,,,0.00,,2013-01-21 22:33:00,
2013-01-21 17:43:00,25.0,11.0,29.88,SSW,196,0.0,0.0,55,0.00,,,0.00,,2013-01-21 22:43:00,
2013-01-21 17:52:00,25.0,12.0,29.88,SW,224,1.0,6.0,57,0.00,,,0.00,,2013-01-21 22:52:00,
2013-01-21 18:03:00,25.0,13.0,29.89,WSW,240,1.0,11.0,59,0.00,,,0.00,,2013-01-21 23:03:00,
2013-01-21 18:13:00,25.0,13.0,29.89,WSW,240,1.0,11.0,59,0.00,,,0.00,,2013-01-21 23:13:00,
2013-01-21 18:23:00,25.0,14.0,29.89,SW,223,2.0,6.0,62,0.00,,,0.00,,2013-01-21 23:23:00,
2013-01-21 18:33:00,24.0,15.0,29.89,SW,217,2.0,6.0,68,0.00,,,0.00,,2013-01-21 23:33:00,
2013-01-21 18:42:00,24.0,15.0,29.89,SW,217,2.0,6.0,68,0.00,,,0.00,,2013-01-21 23:42:00,
2013-01-21 18:53:00,24.0,16.0,29.89,SW,236,0.0,4.0,71,0.00,,,0.00,,2013-01-21 23:53:00,
2013-01-21 19:03:00,24.0,18.0,29.89,SW,223,0.0,0.0,76,0.00,,,0.00,,2013-01-22 00:03:00,
2013-01-21 19:12:00,24.0,18.0,29.89,SW,223,0.0,0.0,76,0.00,,,0.00,,2013-01-22 00:12:00,
2013-01-21 19:22:00,23.0,17.0,29.89,SW,224,0.0,0.0,78,0.00,,,0.00,,2013-01-22 00:22:00,
2013-01-21 19:33:00,23.0,18.0,29.88,SW,224,0.0,0.0,82,0.00,,,0.00,,2013-01-22 00:33:00,
2013-01-21 19:43:00,23.0,18.0,29.88,SW,224,0.0,0.0,82,0.00,,,0.00,,2013-01-22 00:43:00,
2013-01-21 19:53:00,23.0,19.0,29.88,SW,224,0.0,0.0,83,0.00,,,0.00,,2013-01-22 00:53:00,
2013-01-21 20:02:00,23.0,19.0,29.87,SW,224,0.0,0.0,84,0.00,,,0.00,,2013-01-22 01:02:00,
2013-01-21 20:12:00,23.0,19.0,29.87,SW,224,0.0,0.0,84,0.00,,,0.00,,2013-01-22 01:12:00,
2013-01-21 20:23:00,23.0,19.0,29.87,SW,224,0.0,0.0,84,0.00,,,0.00,,2013-01-22 01:23:00,
2013-01-21 20:33:00,22.0,18.0,29.86,SW,224,0.0,0.0,85,0.00,,,0.00,,2013-01-22 01:33:00,
2013-01-21 20:43:00,22.0,18.0,29.86,SW,224,0.0,0.0,85,0.00,,,0.00,,2013-01-22 01:43:00,
2013-01-21 20:52:00,22.0,18.0,29.86,SW,224,0.0,0.0,86,0.00,,,0.00,,2013-01-22 01:52:00,
2013-01-21 21:03:00,22.0,18.0,29.86,South,171,0.0,0.0,86,0.00,,,0.00,,2013-01-22 02:03:00,
2013-01-21 21:12:00,22.0,18.0,29.86,South,171,0.0,0.0,86,0.00,,,0.00,,2013-01-22 02:12:00,
2013-01-21 21:22:00,22.0,19.0,29.86,South,169,0.0,0.0,87,0.00,,,0.00,,2013-01-22 02:22:00,
2013-01-21 21:33:00,22.0,19.0,29.85,ESE,116,0.0,0.0,87,0.00,,,0.00,,2013-01-22 02:33:00,
2013-01-21 21:43:00,22.0,19.0,29.85,ESE,116,0.0,0.0,87,0.00,,,0.00,,2013-01-22 02:43:00,
2013-01-21 21:53:00,22.0,19.0,29.85,East,99,0.0,0.0,88,0.00,,,0.00,,2013-01-22 02:53:00,
2013-01-21 22:03:00,22.0,19.0,29.82,NE,54,0.0,2.0,88,0.00,,,0.00,,2013-01-22 03:03:00,
2013-01-21 22:12:00,22.0,19.0,29.82,NE,54,0.0,2.0,88,0.00,,,0.00,,2013-01-22 03:12:00,
2013-01-21 22:22:00,22.0,19.0,29.82,NE,54,0.0,0.0,88,0.00,,,0.00,,2013-01-22 03:22:00,
2013-01-21 22:33:00,22.0,19.0,29.81,East,93,0.0,0.0,89,0.00,,,0.00,,2013-01-22 03:33:00,
2013-01-21 22:42:00,22.0,19.0,29.81,East,93,0.0,0.0,89,0.00,,,0.00,,2013-01-22 03:42:00,
2013-01-21 22:52:00,22.0,20.0,29.81,East,93,0.0,0.0,90,0.00,,,0.00,,2013-01-22 03:52:00,
2013-01-21 23:03:00,22.0,19.0,29.78,East,89,0.0,0.0,89,0.00,,,0.00,,2013-01-22 04:03:00,
2013-01-21 23:12:00,22.0,19.0,29.78,East,89,0.0,0.0,89,0.00,,,0.00,,2013-01-22 04:12:00,
2013-01-21 23:22:00,22.0,20.0,29.78,East,93,0.0,0.0,90,0.00,,,0.00,,2013-01-22 04:22:00,
2013-01-21 23:33:00,22.0,20.0,29.77,ESE,104,0.0,0.0,90,0.00,,,0.00,,2013-01-22 04:33:00,
2013-01-21 23:42:00,22.0,20.0,29.77,ESE,104,0.0,0.0,90,0.00,,,0.00,,2013-01-22 04:42:00,
2013-01-21 23:52:00,22.0,20.0,29.77,ESE,104,0.0,0.0,90,0.00,,,0.00,,2013-01-22 04:52:00,